createdAt,value
2023-06-19T00:02:42.512Z,36.66
2023-06-19T00:07:45.238Z,36.65
2023-06-19T00:12:49.331Z,36.85
2023-06-19T00:17:52.011Z,37.01
2023-06-19T00:22:54.842Z,37.27
2023-06-19T00:27:58.860Z,37.43
2023-06-19T00:33:04.310Z,37.72
2023-06-19T00:38:07.706Z,37.65
2023-06-19T00:43:11.815Z,37.97
2023-06-19T00:48:14.565Z,38.08
2023-06-19T00:53:17.267Z,38.19
2023-06-19T00:58:22.191Z,38.50
2023-06-19T01:03:24.887Z,38.45
2023-06-19T01:08:44.093Z,38.41
2023-06-19T01:13:51.419Z,38.21
2023-06-19T01:18:54.155Z,38.50
2023-06-19T01:23:58.210Z,38.42
2023-06-19T01:29:01.021Z,38.45
2023-06-19T01:34:06.637Z,38.54
2023-06-19T01:39:11.332Z,38.59
2023-06-19T01:44:14.023Z,38.46
2023-06-19T01:49:16.782Z,38.63
2023-06-19T01:54:20.828Z,38.64
2023-06-19T01:59:24.676Z,38.64
2023-06-19T02:04:27.432Z,38.83
2023-06-19T02:09:31.470Z,38.69
2023-06-19T02:14:34.158Z,38.89
2023-06-19T02:19:37.436Z,38.83
2023-06-19T02:24:41.494Z,38.79
2023-06-19T02:29:44.290Z,38.78
2023-06-19T02:34:47.207Z,38.85
2023-06-19T02:39:51.243Z,38.76
2023-06-19T02:44:53.947Z,38.88
2023-06-19T02:49:56.650Z,38.71
2023-06-19T02:55:01.070Z,38.69
2023-06-19T03:00:07.016Z,38.67
2023-06-19T03:05:10.754Z,38.70
2023-06-19T03:10:14.855Z,38.60
2023-06-19T03:15:18.250Z,38.76
2023-06-19T03:20:25.210Z,38.68
2023-06-19T03:25:35.882Z,38.69
2023-06-19T03:30:39.381Z,38.76
2023-06-19T03:35:42.791Z,38.78
2023-06-19T03:40:53.517Z,38.67
2023-06-19T03:45:57.283Z,38.73
2023-06-19T03:51:01.797Z,38.75
2023-06-19T03:56:06.557Z,38.91
2023-06-19T04:01:09.480Z,38.97
2023-06-19T04:06:12.195Z,38.99
2023-06-19T04:11:17.637Z,39.04
2023-06-19T04:16:21.433Z,39.07
2023-06-19T04:21:24.628Z,39.20
2023-06-19T04:26:28.712Z,39.32
2023-06-19T04:31:31.862Z,39.06
2023-06-19T04:36:34.721Z,39.17
2023-06-19T04:41:39.470Z,39.10
2023-06-19T04:46:42.715Z,39.12
2023-06-19T04:51:45.463Z,39.33
2023-06-19T04:56:49.446Z,39.40
2023-06-19T05:01:54.905Z,39.53
2023-06-19T05:06:57.614Z,39.57
2023-06-19T05:12:01.630Z,39.67
2023-06-19T05:17:04.481Z,39.62
2023-06-19T05:22:07.752Z,39.63
2023-06-19T05:27:11.799Z,39.64
2023-06-19T05:32:14.974Z,39.49
2023-06-19T05:37:18.176Z,39.60
2023-06-19T05:42:22.212Z,39.71
2023-06-19T05:47:26.857Z,39.38
2023-06-19T05:52:29.835Z,39.44
2023-06-19T05:57:34.634Z,39.22
2023-06-19T06:02:37.369Z,39.19
2023-06-19T06:07:41.586Z,39.24
2023-06-19T06:12:45.978Z,38.80
2023-06-19T06:17:48.643Z,39.33
2023-06-19T06:22:51.442Z,39.65
2023-06-19T06:27:55.424Z,39.79
2023-06-19T06:32:58.115Z,39.89
2023-06-19T06:38:00.834Z,39.90
2023-06-19T06:43:04.852Z,39.86
2023-06-19T06:48:08.123Z,39.88
2023-06-19T06:53:10.961Z,39.90
2023-06-19T06:58:15.373Z,39.92
2023-06-19T07:03:19.128Z,39.93
2023-06-19T07:08:21.976Z,40.13
2023-06-19T07:13:26.764Z,40.12
2023-06-19T07:18:29.612Z,40.00
2023-06-19T07:23:32.336Z,40.11
2023-06-19T07:28:37.244Z,40.04
2023-06-19T07:33:39.950Z,39.88
2023-06-19T07:38:42.597Z,40.03
2023-06-19T07:43:46.661Z,40.01
2023-06-19T07:48:49.364Z,40.11
2023-06-19T07:53:52.036Z,40.03
2023-06-19T07:58:56.180Z,40.21
2023-06-19T08:03:58.934Z,40.22
2023-06-19T08:09:01.612Z,40.08
2023-06-19T08:14:05.696Z,40.37
2023-06-19T08:19:08.353Z,40.36
2023-06-19T08:24:11.034Z,40.33
2023-06-19T08:29:15.206Z,40.61
2023-06-19T08:34:17.884Z,40.74
2023-06-19T08:39:21.284Z,40.59
2023-06-19T08:44:25.373Z,40.59
2023-06-19T08:49:28.602Z,40.49
2023-06-19T08:54:31.384Z,40.28
2023-06-19T08:59:35.502Z,40.87
2023-06-19T09:04:38.142Z,41.07
2023-06-19T09:09:46.545Z,40.94
2023-06-19T09:14:50.546Z,40.96
2023-06-19T09:19:54.039Z,41.48
2023-06-19T09:25:02.151Z,40.91
2023-06-19T09:30:17.574Z,41.53
2023-06-19T09:35:21.873Z,41.31
2023-06-19T09:40:26.276Z,41.31
2023-06-19T09:45:31.538Z,41.16
2023-06-19T09:50:35.664Z,41.35
2023-06-19T09:55:39.870Z,41.83
2023-06-19T10:00:44.986Z,41.38
2023-06-19T10:05:47.724Z,41.16
2023-06-19T10:10:50.800Z,41.63
2023-06-19T10:15:54.802Z,40.97
2023-06-19T10:20:57.572Z,40.92
2023-06-19T10:26:03.007Z,41.08
2023-06-19T10:31:09.139Z,42.26
2023-06-19T10:36:16.267Z,41.49
2023-06-19T10:41:19.023Z,41.07
2023-06-19T10:46:24.931Z,41.34
2023-06-19T10:51:28.758Z,41.04
2023-06-19T10:56:31.451Z,40.96
2023-06-19T11:01:45.177Z,40.89
2023-06-19T11:06:51.322Z,40.73
2023-06-19T11:12:00.727Z,40.79
2023-06-19T11:17:05.340Z,40.73
2023-06-19T11:22:08.921Z,40.90
2023-06-19T11:27:18.782Z,40.99
2023-06-19T11:32:26.213Z,40.81
2023-06-19T11:37:31.486Z,40.77
2023-06-19T11:42:34.614Z,40.71
2023-06-19T11:47:38.986Z,40.67
2023-06-19T11:52:42.051Z,40.72
2023-06-19T11:57:44.846Z,40.69
2023-06-19T12:02:49.321Z,40.53
2023-06-19T12:07:52.283Z,40.63
2023-06-19T12:12:56.009Z,40.59
2023-06-19T12:18:00.029Z,40.40
2023-06-19T12:23:02.944Z,40.57
2023-06-19T12:28:09.271Z,40.42
2023-06-19T12:33:13.548Z,40.22
2023-06-19T12:38:16.244Z,40.30
2023-06-19T12:43:18.921Z,40.23
2023-06-19T12:48:22.932Z,40.25
2023-06-19T12:53:29.952Z,40.24
2023-06-19T12:58:32.747Z,40.29
2023-06-19T13:03:36.837Z,40.25
2023-06-19T13:08:39.582Z,40.30
2023-06-19T13:13:42.261Z,40.25
2023-06-19T13:18:46.281Z,40.22
2023-06-19T13:23:50.118Z,40.14
2023-06-19T13:28:52.853Z,40.15
2023-06-19T13:33:56.838Z,40.22
2023-06-19T13:38:59.628Z,40.03
2023-06-19T13:44:02.771Z,40.04
2023-06-19T13:49:06.867Z,40.16
2023-06-19T13:54:09.558Z,40.08
2023-06-19T13:59:12.287Z,39.90
2023-06-19T14:04:16.264Z,40.00
2023-06-19T14:09:18.995Z,39.80
2023-06-19T14:14:21.850Z,39.83
2023-06-19T14:19:26.284Z,39.88
2023-06-19T14:24:29.076Z,39.83
2023-06-19T14:29:56.708Z,39.92
2023-06-19T14:35:00.713Z,39.83
2023-06-19T14:40:03.495Z,39.75
2023-06-19T14:45:06.677Z,39.63
2023-06-19T14:50:11.361Z,39.73
2023-06-19T14:55:14.004Z,39.93
2023-06-19T15:00:17.052Z,39.98
2023-06-19T15:05:21.280Z,39.85
2023-06-19T15:10:24.449Z,39.71
2023-06-19T15:15:27.452Z,39.66
2023-06-19T15:20:31.736Z,39.59
2023-06-19T15:25:34.489Z,39.69
2023-06-19T15:30:37.220Z,39.63
2023-06-19T15:35:42.385Z,39.59
2023-06-19T15:40:45.344Z,39.51
2023-06-19T15:45:48.128Z,39.65
2023-06-19T15:50:52.200Z,39.46
2023-06-19T15:55:54.882Z,39.54
2023-06-19T16:00:57.582Z,39.59
2023-06-19T16:06:07.789Z,39.68
2023-06-19T16:11:12.088Z,39.51
2023-06-19T16:16:14.852Z,39.28
2023-06-19T16:21:19.588Z,39.45
2023-06-19T16:26:22.276Z,39.38
2023-06-19T16:31:25.086Z,39.41
2023-06-19T16:36:29.103Z,39.39
2023-06-19T16:41:31.830Z,39.48
2023-06-19T16:46:34.585Z,39.50
2023-06-19T16:51:38.667Z,39.40
2023-06-19T16:56:41.364Z,39.39
2023-06-19T17:01:44.420Z,39.38
2023-06-19T17:06:48.537Z,39.26
2023-06-19T17:11:52.879Z,39.40
2023-06-19T17:16:55.840Z,39.32
2023-06-19T17:21:59.924Z,39.13
2023-06-19T17:27:02.692Z,39.41
2023-06-19T17:32:06.057Z,39.04
2023-06-19T17:37:10.284Z,39.14
2023-06-19T17:42:12.977Z,39.10
2023-06-19T17:47:16.682Z,38.96
2023-06-19T17:52:20.864Z,38.94
2023-06-19T17:57:23.999Z,39.00
2023-06-19T18:02:26.874Z,38.81
2023-06-19T18:07:30.970Z,38.68
2023-06-19T18:12:33.883Z,38.82
2023-06-19T18:17:36.655Z,38.85
2023-06-19T18:22:40.804Z,38.80
2023-06-19T18:27:43.493Z,38.78
2023-06-19T18:32:46.253Z,38.80
2023-06-19T18:37:50.436Z,39.00
2023-06-19T18:42:53.193Z,38.94
2023-06-19T18:47:55.900Z,39.11
2023-06-19T18:53:00.065Z,38.99
2023-06-19T18:58:02.770Z,39.13
2023-06-19T19:03:05.535Z,38.91
2023-06-19T19:08:11.509Z,38.80
2023-06-19T19:13:14.253Z,38.61
2023-06-19T19:18:17.112Z,38.64
2023-06-19T19:23:21.265Z,38.60
2023-06-19T19:28:24.008Z,38.12
2023-06-19T19:33:26.839Z,38.21
2023-06-19T19:38:30.959Z,38.01
2023-06-19T19:43:33.802Z,37.96
2023-06-19T19:48:36.564Z,37.56
2023-06-19T19:53:40.621Z,37.63
2023-06-19T19:58:43.309Z,37.67
2023-06-19T20:03:46.716Z,37.55
2023-06-19T20:08:50.859Z,37.36
2023-06-19T20:13:53.549Z,37.36
2023-06-19T20:18:56.298Z,37.17
2023-06-19T20:24:00.528Z,37.22
2023-06-19T20:29:03.307Z,37.22
2023-06-19T20:34:07.345Z,37.05
2023-06-19T20:39:11.393Z,37.19
2023-06-19T20:44:14.722Z,37.45
2023-06-19T20:49:17.556Z,37.33
2023-06-19T20:54:21.649Z,37.36
2023-06-19T20:59:24.308Z,37.53
2023-06-19T21:04:27.028Z,37.41
2023-06-19T21:09:31.323Z,37.40
2023-06-19T21:14:35.170Z,37.47
2023-06-19T21:19:37.859Z,37.44
2023-06-19T21:24:42.074Z,37.58
2023-06-19T21:29:44.901Z,37.44
2023-06-19T21:34:47.622Z,37.56
2023-06-19T21:39:51.615Z,37.64
2023-06-19T21:44:54.341Z,37.60
2023-06-19T21:49:57.234Z,37.49
2023-06-19T21:55:01.383Z,37.73
2023-06-19T22:00:05.843Z,37.86
2023-06-19T22:05:08.981Z,37.79
2023-06-19T22:10:13.656Z,37.77
2023-06-19T22:15:16.445Z,37.93
2023-06-19T22:20:19.402Z,37.85
2023-06-19T22:25:23.957Z,38.02
2023-06-19T22:30:27.006Z,38.07
2023-06-19T22:35:29.998Z,38.09
2023-06-19T22:40:34.655Z,37.96
2023-06-19T22:45:37.464Z,38.15
2023-06-19T22:50:40.198Z,37.98
2023-06-19T22:55:44.260Z,38.28
2023-06-19T23:00:47.672Z,38.40
2023-06-19T23:05:50.369Z,38.16
2023-06-19T23:10:54.426Z,38.39
2023-06-19T23:15:57.155Z,38.37
2023-06-19T23:20:59.865Z,38.48
2023-06-19T23:26:03.981Z,38.53
2023-06-19T23:31:07.118Z,38.75
2023-06-19T23:36:09.788Z,38.60
2023-06-19T23:41:13.798Z,38.80
2023-06-19T23:46:18.644Z,38.67
2023-06-19T23:51:21.663Z,38.82
2023-06-19T23:56:25.698Z,38.82
